sensor_id;sensor_type;location;lat;lon;timestamp;temperature;humidity
27270;DHT22;14769;56.934;24.176;2022-08-05T00:01:01;18.60;96.20
27270;DHT22;14769;56.934;24.176;2022-08-05T00:02:26;18.60;96.10
27270;DHT22;14769;56.934;24.176;2022-08-05T00:03:33;18.60;96.10
27270;DHT22;14769;56.934;24.176;2022-08-05T00:04:37;18.60;96.10
27270;DHT22;14769;56.934;24.176;2022-08-05T00:05:41;18.60;95.80
27270;DHT22;14769;56.934;24.176;2022-08-05T00:07:04;18.60;95.50
27270;DHT22;14769;56.934;24.176;2022-08-05T00:08:28;18.60;95.90
27270;DHT22;14769;56.934;24.176;2022-08-05T00:09:36;18.50;96.40
27270;DHT22;14769;56.934;24.176;2022-08-05T00:10:38;18.50;96.70
27270;DHT22;14769;56.934;24.176;2022-08-05T00:11:40;18.40;97.40
27270;DHT22;14769;56.934;24.176;2022-08-05T00:12:56;18.40;98.30
27270;DHT22;14769;56.934;24.176;2022-08-05T00:13:58;18.30;99.10
27270;DHT22;14769;56.934;24.176;2022-08-05T00:15:03;18.20;99.60
27270;DHT22;14769;56.934;24.176;2022-08-05T00:16:25;18.20;99.30
27270;DHT22;14769;56.934;24.176;2022-08-05T00:17:37;18.20;98.80
27270;DHT22;14769;56.934;24.176;2022-08-05T00:18:44;18.20;98.30
27270;DHT22;14769;56.934;24.176;2022-08-05T00:19:49;18.20;98.10
27270;DHT22;14769;56.934;24.176;2022-08-05T00:21:04;18.20;97.60
27270;DHT22;14769;56.934;24.176;2022-08-05T00:22:08;18.20;96.90
27270;DHT22;14769;56.934;24.176;2022-08-05T00:23:12;18.30;96.00
27270;DHT22;14769;56.934;24.176;2022-08-05T00:24:14;18.30;95.30
27270;DHT22;14769;56.934;24.176;2022-08-05T00:25:25;18.40;94.70
27270;DHT22;14769;56.934;24.176;2022-08-05T00:26:47;18.40;94.10
27270;DHT22;14769;56.934;24.176;2022-08-05T00:27:52;18.40;93.50
27270;DHT22;14769;56.934;24.176;2022-08-05T00:28:56;18.40;93.10
27270;DHT22;14769;56.934;24.176;2022-08-05T00:30:00;18.40;92.90
27270;DHT22;14769;56.934;24.176;2022-08-05T00:31:04;18.40;92.60
27270;DHT22;14769;56.934;24.176;2022-08-05T00:32:08;18.50;92.20
27270;DHT22;14769;56.934;24.176;2022-08-05T00:33:18;18.50;92.10
27270;DHT22;14769;56.934;24.176;2022-08-05T00:34:44;18.50;91.90
27270;DHT22;14769;56.934;24.176;2022-08-05T00:36:08;18.60;91.70
27270;DHT22;14769;56.934;24.176;2022-08-05T00:37:30;18.50;91.50
27270;DHT22;14769;56.934;24.176;2022-08-05T00:38:52;18.50;91.40
27270;DHT22;14769;56.934;24.176;2022-08-05T00:39:59;18.50;91.30
27270;DHT22;14769;56.934;24.176;2022-08-05T00:41:03;18.50;91.10
27270;DHT22;14769;56.934;24.176;2022-08-05T00:42:12;18.60;90.90
27270;DHT22;14769;56.934;24.176;2022-08-05T00:43:34;18.50;90.70
27270;DHT22;14769;56.934;24.176;2022-08-05T00:44:50;18.50;90.70
27270;DHT22;14769;56.934;24.176;2022-08-05T00:45:56;18.50;90.70
27270;DHT22;14769;56.934;24.176;2022-08-05T00:46:59;18.60;90.80
27270;DHT22;14769;56.934;24.176;2022-08-05T00:48:07;18.50;91.40
27270;DHT22;14769;56.934;24.176;2022-08-05T00:49:10;18.50;92.00
27270;DHT22;14769;56.934;24.176;2022-08-05T00:50:15;18.40;92.50
27270;DHT22;14769;56.934;24.176;2022-08-05T00:51:18;18.30;93.00
27270;DHT22;14769;56.934;24.176;2022-08-05T00:52:40;18.20;93.70
27270;DHT22;14769;56.934;24.176;2022-08-05T00:53:48;18.20;94.00
27270;DHT22;14769;56.934;24.176;2022-08-05T00:55:04;18.10;93.90
27270;DHT22;14769;56.934;24.176;2022-08-05T00:56:06;18.10;93.80
27270;DHT22;14769;56.934;24.176;2022-08-05T00:57:08;18.10;93.60
27270;DHT22;14769;56.934;24.176;2022-08-05T00:58:12;18.10;93.50
27270;DHT22;14769;56.934;24.176;2022-08-05T00:59:14;18.10;93.40
27270;DHT22;14769;56.934;24.176;2022-08-05T01:00:16;18.20;93.00
27270;DHT22;14769;56.934;24.176;2022-08-05T01:01:22;18.20;92.80
27270;DHT22;14769;56.934;24.176;2022-08-05T01:02:43;18.20;92.60
27270;DHT22;14769;56.934;24.176;2022-08-05T01:04:03;18.20;92.50
27270;DHT22;14769;56.934;24.176;2022-08-05T01:05:17;18.20;92.40
27270;DHT22;14769;56.934;24.176;2022-08-05T01:06:21;18.20;92.20
27270;DHT22;14769;56.934;24.176;2022-08-05T01:07:33;18.20;92.20
27270;DHT22;14769;56.934;24.176;2022-08-05T01:08:37;18.20;92.10
27270;DHT22;14769;56.934;24.176;2022-08-05T01:09:45;18.20;92.00
27270;DHT22;14769;56.934;24.176;2022-08-05T01:11:00;18.20;92.00
27270;DHT22;14769;56.934;24.176;2022-08-05T01:12:07;18.20;91.90
27270;DHT22;14769;56.934;24.176;2022-08-05T01:13:46;18.20;92.00
27270;DHT22;14769;56.934;24.176;2022-08-05T01:15:07;18.20;92.10
27270;DHT22;14769;56.934;24.176;2022-08-05T01:16:48;18.10;92.10
27270;DHT22;14769;56.934;24.176;2022-08-05T01:18:00;18.00;92.60
27270;DHT22;14769;56.934;24.176;2022-08-05T01:24:38;17.70;94.50
27270;DHT22;14769;56.934;24.176;2022-08-05T01:27:17;17.40;96.10
27270;DHT22;14769;56.934;24.176;2022-08-05T01:28:48;17.30;96.70
27270;DHT22;14769;56.934;24.176;2022-08-05T01:29:58;17.30;97.20
27270;DHT22;14769;56.934;24.176;2022-08-05T01:31:11;17.30;97.20
27270;DHT22;14769;56.934;24.176;2022-08-05T01:32:32;17.30;96.90
27270;DHT22;14769;56.934;24.176;2022-08-05T01:33:58;17.30;96.50
27270;DHT22;14769;56.934;24.176;2022-08-05T01:35:08;17.40;96.30
27270;DHT22;14769;56.934;24.176;2022-08-05T01:36:14;17.50;96.20
27270;DHT22;14769;56.934;24.176;2022-08-05T01:37:38;17.50;95.90
27270;DHT22;14769;56.934;24.176;2022-08-05T01:38:45;17.50;95.40
27270;DHT22;14769;56.934;24.176;2022-08-05T01:39:51;17.50;95.20
27270;DHT22;14769;56.934;24.176;2022-08-05T01:41:00;17.50;95.10
27270;DHT22;14769;56.934;24.176;2022-08-05T01:42:04;17.60;94.90
27270;DHT22;14769;56.934;24.176;2022-08-05T01:43:10;17.50;94.90
27270;DHT22;14769;56.934;24.176;2022-08-05T01:44:25;17.50;94.70
27270;DHT22;14769;56.934;24.176;2022-08-05T01:45:36;17.50;94.70
27270;DHT22;14769;56.934;24.176;2022-08-05T01:46:44;17.50;94.80
27270;DHT22;14769;56.934;24.176;2022-08-05T01:47:48;17.50;94.70
27270;DHT22;14769;56.934;24.176;2022-08-05T01:48:56;17.50;94.60
27270;DHT22;14769;56.934;24.176;2022-08-05T01:50:02;17.50;94.50
27270;DHT22;14769;56.934;24.176;2022-08-05T01:51:07;17.60;94.50
27270;DHT22;14769;56.934;24.176;2022-08-05T01:52:14;17.60;94.30
27270;DHT22;14769;56.934;24.176;2022-08-05T01:53:19;17.60;94.10
27270;DHT22;14769;56.934;24.176;2022-08-05T01:54:48;17.60;94.00
27270;DHT22;14769;56.934;24.176;2022-08-05T01:55:57;17.60;93.90
27270;DHT22;14769;56.934;24.176;2022-08-05T01:57:08;17.60;94.10
27270;DHT22;14769;56.934;24.176;2022-08-05T01:58:31;17.60;94.50
27270;DHT22;14769;56.934;24.176;2022-08-05T01:59:47;17.50;95.10
27270;DHT22;14769;56.934;24.176;2022-08-05T02:00:56;17.50;96.00
27270;DHT22;14769;56.934;24.176;2022-08-05T02:02:06;17.40;96.70
27270;DHT22;14769;56.934;24.176;2022-08-05T02:03:28;17.40;97.50
27270;DHT22;14769;56.934;24.176;2022-08-05T02:04:44;17.30;97.80
27270;DHT22;14769;56.934;24.176;2022-08-05T02:06:24;17.30;98.20
27270;DHT22;14769;56.934;24.176;2022-08-05T02:07:39;17.20;98.80
27270;DHT22;14769;56.934;24.176;2022-08-05T02:09:01;17.10;98.90
27270;DHT22;14769;56.934;24.176;2022-08-05T02:10:06;17.10;98.90
27270;DHT22;14769;56.934;24.176;2022-08-05T02:11:11;17.00;99.10
27270;DHT22;14769;56.934;24.176;2022-08-05T02:12:42;17.00;99.60
27270;DHT22;14769;56.934;24.176;2022-08-05T02:14:16;17.00;99.70
27270;DHT22;14769;56.934;24.176;2022-08-05T02:15:34;17.00;99.50
27270;DHT22;14769;56.934;24.176;2022-08-05T02:16:51;17.00;99.10
27270;DHT22;14769;56.934;24.176;2022-08-05T02:19:29;17.00;98.20
27270;DHT22;14769;56.934;24.176;2022-08-05T02:20:56;17.00;97.80
27270;DHT22;14769;56.934;24.176;2022-08-05T02:22:18;17.00;97.20
27270;DHT22;14769;56.934;24.176;2022-08-05T02:23:32;17.00;97.00
27270;DHT22;14769;56.934;24.176;2022-08-05T02:24:38;17.10;96.70
27270;DHT22;14769;56.934;24.176;2022-08-05T02:25:43;17.10;96.40
27270;DHT22;14769;56.934;24.176;2022-08-05T02:27:00;17.10;96.40
27270;DHT22;14769;56.934;24.176;2022-08-05T02:28:12;17.10;95.90
27270;DHT22;14769;56.934;24.176;2022-08-05T02:29:21;17.10;95.90
27270;DHT22;14769;56.934;24.176;2022-08-05T02:30:47;17.20;95.90
27270;DHT22;14769;56.934;24.176;2022-08-05T02:31:56;17.10;96.00
27270;DHT22;14769;56.934;24.176;2022-08-05T02:33:06;17.10;96.00
27270;DHT22;14769;56.934;24.176;2022-08-05T02:34:13;17.10;96.00
27270;DHT22;14769;56.934;24.176;2022-08-05T02:35:20;17.10;96.30
27270;DHT22;14769;56.934;24.176;2022-08-05T02:36:35;17.10;97.00
27270;DHT22;14769;56.934;24.176;2022-08-05T02:37:41;17.10;97.70
27270;DHT22;14769;56.934;24.176;2022-08-05T02:38:55;17.10;98.40
27270;DHT22;14769;56.934;24.176;2022-08-05T02:40:00;17.00;98.60
27270;DHT22;14769;56.934;24.176;2022-08-05T02:41:03;17.00;98.70
27270;DHT22;14769;56.934;24.176;2022-08-05T02:42:18;17.00;98.90
27270;DHT22;14769;56.934;24.176;2022-08-05T02:43:29;16.90;99.20
27270;DHT22;14769;56.934;24.176;2022-08-05T02:44:37;16.80;99.40
27270;DHT22;14769;56.934;24.176;2022-08-05T02:45:41;16.80;99.90
27270;DHT22;14769;56.934;24.176;2022-08-05T02:46:55;16.70;99.90
27270;DHT22;14769;56.934;24.176;2022-08-05T02:48:01;16.60;99.90
27270;DHT22;14769;56.934;24.176;2022-08-05T02:49:15;16.70;99.90
27270;DHT22;14769;56.934;24.176;2022-08-05T02:50:17;16.70;99.90
27270;DHT22;14769;56.934;24.176;2022-08-05T02:51:20;16.60;99.90
27270;DHT22;14769;56.934;24.176;2022-08-05T02:52:44;16.60;99.90
27270;DHT22;14769;56.934;24.176;2022-08-05T02:53:47;16.50;99.90
27270;DHT22;14769;56.934;24.176;2022-08-05T02:54:55;16.40;99.90
27270;DHT22;14769;56.934;24.176;2022-08-05T02:55:58;16.30;99.90
27270;DHT22;14769;56.934;24.176;2022-08-05T02:57:06;16.30;99.90
27270;DHT22;14769;56.934;24.176;2022-08-05T02:58:29;16.40;99.90
27270;DHT22;14769;56.934;24.176;2022-08-05T02:59:32;16.40;99.90
27270;DHT22;14769;56.934;24.176;2022-08-05T03:00:58;16.40;99.90
27270;DHT22;14769;56.934;24.176;2022-08-05T03:02:02;16.50;99.90
27270;DHT22;14769;56.934;24.176;2022-08-05T03:03:05;16.50;99.90
27270;DHT22;14769;56.934;24.176;2022-08-05T03:04:13;16.50;99.90
27270;DHT22;14769;56.934;24.176;2022-08-05T03:05:16;16.50;99.90
27270;DHT22;14769;56.934;24.176;2022-08-05T03:06:40;16.50;99.90
27270;DHT22;14769;56.934;24.176;2022-08-05T03:07:59;16.50;99.90
27270;DHT22;14769;56.934;24.176;2022-08-05T03:09:13;16.50;99.90
27270;DHT22;14769;56.934;24.176;2022-08-05T03:10:18;16.40;99.90
27270;DHT22;14769;56.934;24.176;2022-08-05T03:11:26;16.40;99.90
27270;DHT22;14769;56.934;24.176;2022-08-05T03:12:48;16.40;99.90
27270;DHT22;14769;56.934;24.176;2022-08-05T03:13:53;16.40;99.90
27270;DHT22;14769;56.934;24.176;2022-08-05T03:15:06;16.40;99.90
27270;DHT22;14769;56.934;24.176;2022-08-05T03:16:09;16.50;99.90
27270;DHT22;14769;56.934;24.176;2022-08-05T03:17:16;16.50;99.90
27270;DHT22;14769;56.934;24.176;2022-08-05T03:18:20;16.60;99.90
27270;DHT22;14769;56.934;24.176;2022-08-05T03:19:31;16.60;99.90
27270;DHT22;14769;56.934;24.176;2022-08-05T03:20:37;16.70;99.90
27270;DHT22;14769;56.934;24.176;2022-08-05T03:21:49;16.80;99.90
27270;DHT22;14769;56.934;24.176;2022-08-05T03:22:52;16.80;99.90
27270;DHT22;14769;56.934;24.176;2022-08-05T03:23:58;16.80;99.90
27270;DHT22;14769;56.934;24.176;2022-08-05T03:25:03;16.90;99.90
27270;DHT22;14769;56.934;24.176;2022-08-05T03:26:26;16.90;99.90
27270;DHT22;14769;56.934;24.176;2022-08-05T03:27:33;17.00;99.90
27270;DHT22;14769;56.934;24.176;2022-08-05T03:28:55;17.00;99.90
27270;DHT22;14769;56.934;24.176;2022-08-05T03:29:57;17.00;99.90
27270;DHT22;14769;56.934;24.176;2022-08-05T03:31:09;17.00;99.90
27270;DHT22;14769;56.934;24.176;2022-08-05T03:32:31;17.10;99.90
27270;DHT22;14769;56.934;24.176;2022-08-05T03:33:33;17.10;99.90
27270;DHT22;14769;56.934;24.176;2022-08-05T03:34:53;17.10;99.90
27270;DHT22;14769;56.934;24.176;2022-08-05T03:35:57;17.10;99.90
27270;DHT22;14769;56.934;24.176;2022-08-05T03:36:59;17.20;99.90
27270;DHT22;14769;56.934;24.176;2022-08-05T03:38:03;17.10;99.90
27270;DHT22;14769;56.934;24.176;2022-08-05T03:39:06;17.20;99.90
27270;DHT22;14769;56.934;24.176;2022-08-05T03:40:20;17.20;99.90
27270;DHT22;14769;56.934;24.176;2022-08-05T03:41:33;17.30;99.90
27270;DHT22;14769;56.934;24.176;2022-08-05T03:42:47;17.40;99.90
27270;DHT22;14769;56.934;24.176;2022-08-05T03:43:53;17.40;99.90
27270;DHT22;14769;56.934;24.176;2022-08-05T03:45:11;17.40;99.90
27270;DHT22;14769;56.934;24.176;2022-08-05T03:46:23;17.50;99.90
27270;DHT22;14769;56.934;24.176;2022-08-05T03:47:30;17.40;99.90
27270;DHT22;14769;56.934;24.176;2022-08-05T03:48:36;17.40;99.90
27270;DHT22;14769;56.934;24.176;2022-08-05T03:49:39;17.50;99.90
27270;DHT22;14769;56.934;24.176;2022-08-05T03:51:02;17.50;99.90
27270;DHT22;14769;56.934;24.176;2022-08-05T03:52:32;17.50;99.90
27270;DHT22;14769;56.934;24.176;2022-08-05T03:53:59;17.60;99.90
27270;DHT22;14769;56.934;24.176;2022-08-05T03:55:26;17.60;99.90
27270;DHT22;14769;56.934;24.176;2022-08-05T03:56:50;17.60;99.90
27270;DHT22;14769;56.934;24.176;2022-08-05T03:57:54;17.50;99.90
27270;DHT22;14769;56.934;24.176;2022-08-05T03:59:00;17.50;99.90
27270;DHT22;14769;56.934;24.176;2022-08-05T04:00:08;17.60;99.90
27270;DHT22;14769;56.934;24.176;2022-08-05T04:01:13;17.60;99.90
27270;DHT22;14769;56.934;24.176;2022-08-05T04:02:27;17.70;99.90
27270;DHT22;14769;56.934;24.176;2022-08-05T04:03:41;17.70;99.90
27270;DHT22;14769;56.934;24.176;2022-08-05T04:05:06;17.70;99.90
27270;DHT22;14769;56.934;24.176;2022-08-05T04:06:11;17.70;99.90
27270;DHT22;14769;56.934;24.176;2022-08-05T04:07:14;17.70;99.90
27270;DHT22;14769;56.934;24.176;2022-08-05T04:08:16;17.80;99.90
27270;DHT22;14769;56.934;24.176;2022-08-05T04:09:36;17.80;99.90
27270;DHT22;14769;56.934;24.176;2022-08-05T04:10:55;17.80;99.90
27270;DHT22;14769;56.934;24.176;2022-08-05T04:11:58;17.90;99.90
27270;DHT22;14769;56.934;24.176;2022-08-05T04:13:01;17.90;99.90
27270;DHT22;14769;56.934;24.176;2022-08-05T04:14:05;17.90;99.90
27270;DHT22;14769;56.934;24.176;2022-08-05T04:15:09;17.90;99.90
27270;DHT22;14769;56.934;24.176;2022-08-05T04:16:17;18.00;99.90
27270;DHT22;14769;56.934;24.176;2022-08-05T04:17:34;18.00;99.90
27270;DHT22;14769;56.934;24.176;2022-08-05T04:18:55;18.00;99.90
27270;DHT22;14769;56.934;24.176;2022-08-05T04:19:58;18.10;99.90
27270;DHT22;14769;56.934;24.176;2022-08-05T04:21:05;18.10;99.90
27270;DHT22;14769;56.934;24.176;2022-08-05T04:22:11;18.10;99.90
27270;DHT22;14769;56.934;24.176;2022-08-05T04:23:23;18.20;99.80
27270;DHT22;14769;56.934;24.176;2022-08-05T04:24:45;18.20;99.80
27270;DHT22;14769;56.934;24.176;2022-08-05T04:25:53;18.20;99.90
27270;DHT22;14769;56.934;24.176;2022-08-05T04:27:00;18.30;99.80
27270;DHT22;14769;56.934;24.176;2022-08-05T04:28:03;18.30;99.70
27270;DHT22;14769;56.934;24.176;2022-08-05T04:29:13;18.30;99.60
27270;DHT22;14769;56.934;24.176;2022-08-05T04:30:15;18.40;99.40
27270;DHT22;14769;56.934;24.176;2022-08-05T04:31:17;18.30;99.40
27270;DHT22;14769;56.934;24.176;2022-08-05T04:32:19;18.40;99.30
27270;DHT22;14769;56.934;24.176;2022-08-05T04:33:32;18.40;99.20
27270;DHT22;14769;56.934;24.176;2022-08-05T04:34:54;18.50;99.20
27270;DHT22;14769;56.934;24.176;2022-08-05T04:35:58;18.50;99.20
27270;DHT22;14769;56.934;24.176;2022-08-05T04:37:20;18.50;99.20
27270;DHT22;14769;56.934;24.176;2022-08-05T04:38:42;18.60;99.20
27270;DHT22;14769;56.934;24.176;2022-08-05T04:39:51;18.60;99.10
27270;DHT22;14769;56.934;24.176;2022-08-05T04:40:57;18.60;99.10
27270;DHT22;14769;56.934;24.176;2022-08-05T04:41:59;18.70;99.10
27270;DHT22;14769;56.934;24.176;2022-08-05T04:43:04;18.70;98.80
27270;DHT22;14769;56.934;24.176;2022-08-05T04:44:12;18.80;98.70
27270;DHT22;14769;56.934;24.176;2022-08-05T04:45:14;18.80;98.60
27270;DHT22;14769;56.934;24.176;2022-08-05T04:46:36;18.80;98.50
27270;DHT22;14769;56.934;24.176;2022-08-05T04:47:39;18.90;98.50
27270;DHT22;14769;56.934;24.176;2022-08-05T04:48:47;18.90;98.40
27270;DHT22;14769;56.934;24.176;2022-08-05T04:49:52;18.90;98.30
27270;DHT22;14769;56.934;24.176;2022-08-05T04:51:11;19.00;98.30
27270;DHT22;14769;56.934;24.176;2022-08-05T04:52:14;19.00;98.20
27270;DHT22;14769;56.934;24.176;2022-08-05T04:53:17;19.00;98.30
27270;DHT22;14769;56.934;24.176;2022-08-05T04:54:19;19.10;98.30
27270;DHT22;14769;56.934;24.176;2022-08-05T04:55:22;19.10;98.20
27270;DHT22;14769;56.934;24.176;2022-08-05T04:56:44;19.10;98.10
27270;DHT22;14769;56.934;24.176;2022-08-05T04:57:46;19.10;98.10
27270;DHT22;14769;56.934;24.176;2022-08-05T04:58:55;19.10;98.20
27270;DHT22;14769;56.934;24.176;2022-08-05T05:00:04;19.20;98.20
27270;DHT22;14769;56.934;24.176;2022-08-05T05:01:08;19.20;98.20
27270;DHT22;14769;56.934;24.176;2022-08-05T05:02:10;19.20;98.00
27270;DHT22;14769;56.934;24.176;2022-08-05T05:03:31;19.20;98.00
27270;DHT22;14769;56.934;24.176;2022-08-05T05:04:42;19.20;98.00
27270;DHT22;14769;56.934;24.176;2022-08-05T05:05:51;19.30;98.10
27270;DHT22;14769;56.934;24.176;2022-08-05T05:07:13;19.30;98.00
27270;DHT22;14769;56.934;24.176;2022-08-05T05:08:31;19.30;97.90
27270;DHT22;14769;56.934;24.176;2022-08-05T05:09:34;19.40;97.80
27270;DHT22;14769;56.934;24.176;2022-08-05T05:10:41;19.40;97.80
27270;DHT22;14769;56.934;24.176;2022-08-05T05:11:57;19.50;97.70
27270;DHT22;14769;56.934;24.176;2022-08-05T05:13:03;19.50;97.70
27270;DHT22;14769;56.934;24.176;2022-08-05T05:14:08;19.50;97.50
27270;DHT22;14769;56.934;24.176;2022-08-05T05:15:16;19.50;97.40
27270;DHT22;14769;56.934;24.176;2022-08-05T05:16:38;19.50;97.50
27270;DHT22;14769;56.934;24.176;2022-08-05T05:17:44;19.60;97.60
27270;DHT22;14769;56.934;24.176;2022-08-05T05:18:58;19.60;97.60
27270;DHT22;14769;56.934;24.176;2022-08-05T05:20:19;19.60;97.70
27270;DHT22;14769;56.934;24.176;2022-08-05T05:21:24;19.70;97.70
27270;DHT22;14769;56.934;24.176;2022-08-05T05:22:34;19.70;97.60
27270;DHT22;14769;56.934;24.176;2022-08-05T05:23:44;19.70;97.50
27270;DHT22;14769;56.934;24.176;2022-08-05T05:25:05;19.80;97.40
27270;DHT22;14769;56.934;24.176;2022-08-05T05:26:17;19.80;97.50
27270;DHT22;14769;56.934;24.176;2022-08-05T05:27:19;19.80;97.40
27270;DHT22;14769;56.934;24.176;2022-08-05T05:28:23;19.90;97.30
27270;DHT22;14769;56.934;24.176;2022-08-05T05:29:25;20.00;97.10
27270;DHT22;14769;56.934;24.176;2022-08-05T05:30:47;20.00;97.00
27270;DHT22;14769;56.934;24.176;2022-08-05T05:31:50;20.00;97.00
27270;DHT22;14769;56.934;24.176;2022-08-05T05:32:53;20.10;97.00
27270;DHT22;14769;56.934;24.176;2022-08-05T05:33:55;20.10;96.80
27270;DHT22;14769;56.934;24.176;2022-08-05T05:35:00;20.20;96.60
27270;DHT22;14769;56.934;24.176;2022-08-05T05:36:03;20.20;96.40
27270;DHT22;14769;56.934;24.176;2022-08-05T05:37:06;20.30;96.20
27270;DHT22;14769;56.934;24.176;2022-08-05T05:38:08;20.30;96.10
27270;DHT22;14769;56.934;24.176;2022-08-05T05:39:14;20.30;96.00
27270;DHT22;14769;56.934;24.176;2022-08-05T05:40:21;20.40;96.10
27270;DHT22;14769;56.934;24.176;2022-08-05T05:41:26;20.40;95.90
27270;DHT22;14769;56.934;24.176;2022-08-05T05:42:42;20.40;95.90
27270;DHT22;14769;56.934;24.176;2022-08-05T05:43:47;20.50;95.80
27270;DHT22;14769;56.934;24.176;2022-08-05T05:45:00;20.50;95.70
27270;DHT22;14769;56.934;24.176;2022-08-05T05:46:03;20.60;95.80
27270;DHT22;14769;56.934;24.176;2022-08-05T05:47:14;20.60;96.10
27270;DHT22;14769;56.934;24.176;2022-08-05T05:48:23;20.70;96.10
27270;DHT22;14769;56.934;24.176;2022-08-05T05:49:28;20.80;95.90
27270;DHT22;14769;56.934;24.176;2022-08-05T05:50:34;20.80;95.70
27270;DHT22;14769;56.934;24.176;2022-08-05T05:51:44;20.80;95.50
27270;DHT22;14769;56.934;24.176;2022-08-05T05:52:51;20.90;95.60
27270;DHT22;14769;56.934;24.176;2022-08-05T05:53:54;20.90;95.50
27270;DHT22;14769;56.934;24.176;2022-08-05T05:55:02;21.00;95.30
27270;DHT22;14769;56.934;24.176;2022-08-05T05:56:14;21.00;95.00
27270;DHT22;14769;56.934;24.176;2022-08-05T05:57:26;21.00;94.90
27270;DHT22;14769;56.934;24.176;2022-08-05T05:58:48;21.10;95.00
27270;DHT22;14769;56.934;24.176;2022-08-05T05:59:50;21.10;94.80
27270;DHT22;14769;56.934;24.176;2022-08-05T06:00:53;21.10;94.70
27270;DHT22;14769;56.934;24.176;2022-08-05T06:01:55;21.20;94.50
27270;DHT22;14769;56.934;24.176;2022-08-05T06:03:00;21.20;94.30
27270;DHT22;14769;56.934;24.176;2022-08-05T06:04:02;21.30;94.40
27270;DHT22;14769;56.934;24.176;2022-08-05T06:05:06;21.30;94.30
27270;DHT22;14769;56.934;24.176;2022-08-05T06:06:16;21.40;94.10
27270;DHT22;14769;56.934;24.176;2022-08-05T06:07:18;21.40;93.90
27270;DHT22;14769;56.934;24.176;2022-08-05T06:08:23;21.40;93.90
27270;DHT22;14769;56.934;24.176;2022-08-05T06:09:33;21.40;93.80
27270;DHT22;14769;56.934;24.176;2022-08-05T06:10:55;21.50;94.00
27270;DHT22;14769;56.934;24.176;2022-08-05T06:11:57;21.50;93.70
27270;DHT22;14769;56.934;24.176;2022-08-05T06:13:03;21.50;93.90
27270;DHT22;14769;56.934;24.176;2022-08-05T06:14:06;21.60;93.80
27270;DHT22;14769;56.934;24.176;2022-08-05T06:15:08;21.70;93.60
27270;DHT22;14769;56.934;24.176;2022-08-05T06:16:24;21.70;93.60
27270;DHT22;14769;56.934;24.176;2022-08-05T06:17:33;21.80;93.20
27270;DHT22;14769;56.934;24.176;2022-08-05T06:21:44;21.90;92.70
27270;DHT22;14769;56.934;24.176;2022-08-05T06:23:10;21.90;92.70
27270;DHT22;14769;56.934;24.176;2022-08-05T06:24:51;22.00;92.70
27270;DHT22;14769;56.934;24.176;2022-08-05T06:26:30;22.00;92.10
27270;DHT22;14769;56.934;24.176;2022-08-05T06:28:25;22.00;92.50
27270;DHT22;14769;56.934;24.176;2022-08-05T06:41:11;22.40;91.50
27270;DHT22;14769;56.934;24.176;2022-08-05T06:43:30;22.50;91.30
27270;DHT22;14769;56.934;24.176;2022-08-05T06:54:23;22.70;90.50
27270;DHT22;14769;56.934;24.176;2022-08-05T07:01:55;23.00;90.20
27270;DHT22;14769;56.934;24.176;2022-08-05T07:03:30;23.10;89.90
27270;DHT22;14769;56.934;24.176;2022-08-05T07:04:45;23.20;89.80
27270;DHT22;14769;56.934;24.176;2022-08-05T07:10:21;23.50;86.90
27270;DHT22;14769;56.934;24.176;2022-08-05T07:11:37;23.50;86.40
27270;DHT22;14769;56.934;24.176;2022-08-05T07:12:40;23.50;86.70
27270;DHT22;14769;56.934;24.176;2022-08-05T07:14:01;23.60;86.70
27270;DHT22;14769;56.934;24.176;2022-08-05T07:15:30;23.70;86.10
27270;DHT22;14769;56.934;24.176;2022-08-05T07:17:05;23.70;86.40
27270;DHT22;14769;56.934;24.176;2022-08-05T07:18:27;23.80;85.80
27270;DHT22;14769;56.934;24.176;2022-08-05T07:19:31;23.80;85.90
27270;DHT22;14769;56.934;24.176;2022-08-05T07:20:53;23.90;85.90
27270;DHT22;14769;56.934;24.176;2022-08-05T07:21:55;23.90;84.30
27270;DHT22;14769;56.934;24.176;2022-08-05T07:23:03;24.00;83.70
27270;DHT22;14769;56.934;24.176;2022-08-05T07:24:05;24.00;82.80
27270;DHT22;14769;56.934;24.176;2022-08-05T07:25:12;24.00;81.70
27270;DHT22;14769;56.934;24.176;2022-08-05T07:26:33;24.00;81.80
27270;DHT22;14769;56.934;24.176;2022-08-05T07:27:36;24.00;82.40
27270;DHT22;14769;56.934;24.176;2022-08-05T07:28:58;24.10;82.90
27270;DHT22;14769;56.934;24.176;2022-08-05T07:30:00;24.10;82.90
27270;DHT22;14769;56.934;24.176;2022-08-05T07:31:22;24.10;83.40
27270;DHT22;14769;56.934;24.176;2022-08-05T07:32:44;24.20;82.50
27270;DHT22;14769;56.934;24.176;2022-08-05T07:33:53;24.10;82.00
27270;DHT22;14769;56.934;24.176;2022-08-05T07:35:00;24.20;82.10
27270;DHT22;14769;56.934;24.176;2022-08-05T07:36:22;24.20;81.70
27270;DHT22;14769;56.934;24.176;2022-08-05T07:37:24;24.30;80.90
27270;DHT22;14769;56.934;24.176;2022-08-05T07:38:37;24.30;80.50
27270;DHT22;14769;56.934;24.176;2022-08-05T07:39:45;24.40;79.50
27270;DHT22;14769;56.934;24.176;2022-08-05T07:41:14;24.40;79.10
27270;DHT22;14769;56.934;24.176;2022-08-05T07:42:36;24.40;78.90
27270;DHT22;14769;56.934;24.176;2022-08-05T07:43:44;24.40;78.90
27270;DHT22;14769;56.934;24.176;2022-08-05T07:44:46;24.40;79.00
27270;DHT22;14769;56.934;24.176;2022-08-05T07:45:50;24.50;79.10
27270;DHT22;14769;56.934;24.176;2022-08-05T07:46:58;24.50;78.50
27270;DHT22;14769;56.934;24.176;2022-08-05T07:48:01;24.60;78.70
27270;DHT22;14769;56.934;24.176;2022-08-05T07:49:03;24.60;78.80
27270;DHT22;14769;56.934;24.176;2022-08-05T07:50:08;24.70;78.60
27270;DHT22;14769;56.934;24.176;2022-08-05T07:51:11;24.70;78.90
27270;DHT22;14769;56.934;24.176;2022-08-05T07:52:40;24.80;77.30
27270;DHT22;14769;56.934;24.176;2022-08-05T07:53:44;24.80;72.30
27270;DHT22;14769;56.934;24.176;2022-08-05T07:54:51;24.70;69.60
27270;DHT22;14769;56.934;24.176;2022-08-05T07:55:53;24.70;71.40
27270;DHT22;14769;56.934;24.176;2022-08-05T07:57:07;24.70;71.30
27270;DHT22;14769;56.934;24.176;2022-08-05T07:58:28;24.80;71.70
27270;DHT22;14769;56.934;24.176;2022-08-05T07:59:50;24.80;71.30
27270;DHT22;14769;56.934;24.176;2022-08-05T08:00:52;24.90;71.80
27270;DHT22;14769;56.934;24.176;2022-08-05T08:01:54;24.90;71.30
27270;DHT22;14769;56.934;24.176;2022-08-05T08:02:58;24.90;71.30
27270;DHT22;14769;56.934;24.176;2022-08-05T08:04:16;25.00;71.00
27270;DHT22;14769;56.934;24.176;2022-08-05T08:05:34;25.00;70.60
27270;DHT22;14769;56.934;24.176;2022-08-05T08:06:40;25.00;70.20